Time;durP1;ratioP1;P1;durP2;ratioP2;P2;SDS_P1;SDS_P2;PMS_P1;PMS_P2;Temp;Humidity;BMP_temperature;BMP_pressure;BME280_temperature;BME280_humidity;BME280_pressure;Samples;Min_cycle;Max_cycle;Signal;HPM_P1;HPM_P2
2024/03/10 05:00:31;;;;;;;24.48;11.27;;;3.20;99.90;;;;;;5842909;23;20235;-69
2024/03/10 05:02:58;;;;;;;7.85;7.05;;;3.10;99.90;;;;;;4925011;29;20217;-69
2024/03/10 05:05:25;;;;;;;16.30;9.68;;;3.10;99.90;;;;;;4920135;29;20244;-70
2024/03/10 05:07:51;;;;;;;14.70;10.00;;;3.10;99.90;;;;;;4931493;29;20214;-70
2024/03/10 05:10:19;;;;;;;16.90;11.20;;;3.10;99.90;;;;;;4928678;29;20224;-69
2024/03/10 05:12:46;;;;;;;16.35;7.88;;;3.00;99.90;;;;;;4932657;29;20362;-69
2024/03/10 05:15:15;;;;;;;20.98;9.88;;;3.00;99.90;;;;;;4932681;29;20289;-74
2024/03/10 05:17:43;;;;;;;19.90;9.07;;;3.00;99.90;;;;;;4934391;29;20210;-70
2024/03/10 05:20:11;;;;;;;17.90;9.68;;;3.00;99.90;;;;;;4934299;29;20230;-70
2024/03/10 05:22:39;;;;;;;20.10;10.43;;;3.00;99.90;;;;;;4932990;29;20205;-69
2024/03/10 05:25:08;;;;;;;15.70;10.02;;;3.00;99.90;;;;;;4931910;29;20220;-73
2024/03/10 05:27:34;;;;;;;22.92;10.05;;;3.00;99.90;;;;;;4936387;29;20311;-69
2024/03/10 05:30:02;;;;;;;11.55;8.18;;;2.90;99.90;;;;;;4933069;29;20232;-71
2024/03/10 05:32:29;;;;;;;15.82;10.00;;;3.00;99.90;;;;;;4927793;29;20236;-70
2024/03/10 05:34:57;;;;;;;17.88;9.88;;;3.00;99.90;;;;;;4931571;29;20222;-72
2024/03/10 05:37:24;;;;;;;26.05;11.18;;;3.00;99.90;;;;;;4933248;29;20212;-70
2024/03/10 05:39:51;;;;;;;17.63;9.70;;;3.00;99.90;;;;;;4931938;29;20217;-70
2024/03/10 05:42:17;;;;;;;23.13;13.88;;;2.90;99.90;;;;;;4932565;29;20250;-73
2024/03/10 05:44:44;;;;;;;22.83;11.55;;;3.00;99.90;;;;;;4934217;29;20235;-70
2024/03/10 05:47:13;;;;;;;15.95;8.80;;;3.00;99.90;;;;;;4929599;29;20205;-70
2024/03/10 05:49:40;;;;;;;18.88;8.02;;;3.00;99.90;;;;;;4933140;29;20284;-69
2024/03/10 05:52:09;;;;;;;14.32;7.30;;;3.00;99.90;;;;;;4932818;29;20233;-69
2024/03/10 05:54:35;;;;;;;20.65;11.02;;;3.00;99.90;;;;;;4934062;29;20233;-72
2024/03/10 05:57:02;;;;;;;20.63;12.75;;;3.00;99.90;;;;;;4931908;29;20217;-70
2024/03/10 05:59:30;;;;;;;19.95;10.35;;;3.10;99.90;;;;;;4933876;29;20218;-70
2024/03/10 06:01:57;;;;;;;18.65;9.73;;;3.10;99.90;;;;;;4931090;29;20240;-71
2024/03/10 06:04:24;;;;;;;15.38;9.90;;;3.10;99.90;;;;;;4928254;29;20616;-71
2024/03/10 06:06:51;;;;;;;25.40;12.60;;;3.10;99.90;;;;;;4932578;29;20222;-70
2024/03/10 06:09:19;;;;;;;16.25;9.02;;;3.10;99.90;;;;;;4930117;29;20210;-70
2024/03/10 06:11:46;;;;;;;17.30;9.45;;;3.10;99.90;;;;;;4932513;29;20229;-71
2024/03/10 06:14:13;;;;;;;21.08;10.13;;;3.10;99.90;;;;;;4938540;29;20233;-72
2024/03/10 06:16:39;;;;;;;17.08;9.05;;;3.10;99.90;;;;;;4938239;29;20206;-72
2024/03/10 06:27:20;;;;;;;20.88;9.20;;;3.40;99.90;;;;;;4937025;29;20242;-73
2024/03/10 06:29:47;;;;;;;20.45;11.85;;;3.50;99.90;;;;;;4933616;29;20240;-72
2024/03/10 06:32:14;;;;;;;18.25;9.68;;;3.50;99.90;;;;;;4934996;29;20335;-70
2024/03/10 06:34:43;;;;;;;13.95;11.15;;;3.60;99.90;;;;;;4932789;29;20261;-71
2024/03/10 06:37:09;;;;;;;16.63;7.22;;;3.60;99.90;;;;;;4928191;29;20660;-71
2024/03/10 06:39:37;;;;;;;18.48;9.73;;;3.60;99.90;;;;;;4932041;29;20324;-72
2024/03/10 06:42:07;;;;;;;21.40;11.20;;;3.60;99.90;;;;;;4931388;29;20652;-73
2024/03/10 06:44:34;;;;;;;17.52;10.68;;;3.60;99.90;;;;;;4927860;29;20201;-71
2024/03/10 06:47:01;;;;;;;18.60;11.20;;;3.70;99.90;;;;;;4931691;29;20247;-72
2024/03/10 06:49:28;;;;;;;15.20;13.23;;;3.80;99.90;;;;;;4931864;29;20205;-71
2024/03/10 06:51:55;;;;;;;23.77;10.68;;;3.80;99.90;;;;;;4932485;29;20708;-72
2024/03/10 06:54:23;;;;;;;31.98;13.63;;;3.90;99.90;;;;;;4932791;29;20225;-71
2024/03/10 06:56:51;;;;;;;20.38;12.70;;;4.00;99.90;;;;;;4927620;29;20641;-71
2024/03/10 06:59:19;;;;;;;27.40;14.73;;;4.00;99.90;;;;;;4924353;29;20771;-73
2024/03/10 07:01:45;;;;;;;17.38;12.50;;;4.10;99.90;;;;;;4924921;29;20240;-72
2024/03/10 07:04:13;;;;;;;19.40;12.73;;;4.20;99.90;;;;;;4923748;29;20206;-70
2024/03/10 07:06:40;;;;;;;24.85;14.00;;;4.20;99.90;;;;;;4930895;29;20360;-71
2024/03/10 07:09:08;;;;;;;18.05;10.35;;;4.30;99.90;;;;;;4929181;29;20683;-72
2024/03/10 07:11:35;;;;;;;22.35;12.48;;;4.40;99.90;;;;;;4931395;29;20276;-70
2024/03/10 07:14:03;;;;;;;25.73;13.75;;;4.40;99.90;;;;;;4928760;29;20606;-71
2024/03/10 07:16:32;;;;;;;23.73;15.35;;;4.50;99.90;;;;;;4927969;29;20602;-71
2024/03/10 07:18:58;;;;;;;17.83;10.70;;;4.50;99.90;;;;;;4933094;29;20288;-70
2024/03/10 07:21:25;;;;;;;20.52;11.20;;;4.60;99.90;;;;;;4931045;29;20236;-72
2024/03/10 07:23:52;;;;;;;24.48;12.25;;;4.70;99.90;;;;;;4930829;29;20228;-72
2024/03/10 07:26:19;;;;;;;21.63;11.40;;;4.80;99.90;;;;;;4931114;29;20217;-71
2024/03/10 07:28:46;;;;;;;22.20;12.30;;;4.80;99.90;;;;;;4927616;29;20220;-71
2024/03/10 07:31:14;;;;;;;18.92;11.48;;;4.90;99.90;;;;;;4930066;29;20701;-72
2024/03/10 07:33:41;;;;;;;24.23;10.60;;;5.00;99.90;;;;;;4929369;29;20226;-72
2024/03/10 07:36:08;;;;;;;19.02;11.73;;;5.10;99.90;;;;;;4931047;29;20269;-70
2024/03/10 07:38:35;;;;;;;19.98;12.50;;;5.10;99.90;;;;;;4931136;29;20217;-70
2024/03/10 07:41:02;;;;;;;23.75;15.32;;;5.20;99.90;;;;;;4929967;29;20693;-70
2024/03/10 07:43:29;;;;;;;25.30;13.77;;;5.20;99.90;;;;;;4926854;29;20201;-69
2024/03/10 07:45:56;;;;;;;21.48;13.95;;;5.30;99.90;;;;;;4930818;29;20254;-70
2024/03/10 07:48:24;;;;;;;15.95;10.25;;;5.30;99.90;;;;;;4932810;29;20212;-70
2024/03/10 07:50:51;;;;;;;20.02;12.07;;;5.40;99.90;;;;;;4925468;29;20233;-71
2024/03/10 07:53:18;;;;;;;32.35;15.13;;;5.40;99.90;;;;;;4932119;29;20210;-70
2024/03/10 07:55:45;;;;;;;37.35;12.13;;;5.50;99.90;;;;;;4931123;29;20280;-69
2024/03/10 07:58:12;;;;;;;24.00;11.88;;;5.60;99.90;;;;;;4933932;29;20552;-71
2024/03/10 08:00:38;;;;;;;22.88;14.85;;;5.60;99.90;;;;;;4932665;29;20238;-70
2024/03/10 08:03:05;;;;;;;21.58;13.55;;;5.70;99.90;;;;;;4935602;29;20222;-71
2024/03/10 08:05:33;;;;;;;21.27;14.25;;;5.80;99.90;;;;;;4934626;29;20670;-71
2024/03/10 08:08:01;;;;;;;28.25;13.07;;;5.80;99.90;;;;;;4933698;29;20210;-72
2024/03/10 08:10:28;;;;;;;21.70;13.05;;;5.90;99.90;;;;;;4934116;29;20297;-71
2024/03/10 08:12:55;;;;;;;22.10;11.52;;;6.00;99.90;;;;;;4933554;29;20220;-73
2024/03/10 08:15:22;;;;;;;29.58;13.15;;;6.10;99.90;;;;;;4934163;29;20229;-73
2024/03/10 08:17:49;;;;;;;29.98;17.40;;;6.20;99.90;;;;;;4934249;29;20293;-70
2024/03/10 08:20:16;;;;;;;27.83;13.27;;;6.20;99.90;;;;;;4935501;29;20202;-70
2024/03/10 08:22:45;;;;;;;17.75;10.65;;;6.30;99.90;;;;;;4932497;29;20217;-71
2024/03/10 08:25:11;;;;;;;27.67;12.95;;;6.40;99.90;;;;;;4934582;29;20215;-70
2024/03/10 08:27:38;;;;;;;23.90;12.55;;;6.40;99.90;;;;;;4932305;29;20210;-70
2024/03/10 08:30:09;;;;;;;21.65;13.00;;;6.50;99.90;;;;;;4929942;29;20861;-71
2024/03/10 08:32:35;;;;;;;21.67;13.50;;;6.60;99.90;;;;;;4930189;29;20758;-70
2024/03/10 08:35:04;;;;;;;31.10;15.70;;;6.60;99.90;;;;;;4930721;29;20249;-71
2024/03/10 08:37:32;;;;;;;21.50;14.02;;;6.70;99.90;;;;;;4933717;29;20306;-71
2024/03/10 08:40:01;;;;;;;25.33;15.40;;;6.80;99.90;;;;;;4935168;29;20208;-71
2024/03/10 08:42:29;;;;;;;19.45;11.30;;;6.80;99.90;;;;;;4933342;29;20323;-70
2024/03/10 08:44:57;;;;;;;18.42;11.75;;;6.90;99.90;;;;;;4932006;29;20209;-71
2024/03/10 08:47:24;;;;;;;24.95;13.63;;;7.00;99.90;;;;;;4932362;29;20297;-71
2024/03/10 08:49:50;;;;;;;21.08;12.82;;;7.00;99.90;;;;;;4934796;29;20256;-71
2024/03/10 08:52:17;;;;;;;25.15;13.77;;;7.10;99.90;;;;;;4928982;29;20708;-75
2024/03/10 08:54:44;;;;;;;26.98;13.93;;;7.20;99.90;;;;;;4933265;29;20364;-70
2024/03/10 08:57:12;;;;;;;17.85;12.05;;;7.20;99.90;;;;;;4932291;29;20213;-73
2024/03/10 08:59:39;;;;;;;20.85;12.20;;;7.30;99.90;;;;;;4934853;29;20215;-72
2024/03/10 09:02:06;;;;;;;26.60;14.02;;;7.30;99.90;;;;;;4932325;29;20620;-71
2024/03/10 09:04:33;;;;;;;19.80;12.35;;;7.40;99.90;;;;;;4931629;29;20307;-74
2024/03/10 09:07:00;;;;;;;14.93;10.57;;;7.50;99.90;;;;;;4928069;29;20665;-73
2024/03/10 09:09:27;;;;;;;20.90;12.52;;;7.50;99.90;;;;;;4931221;29;20202;-71
2024/03/10 09:11:55;;;;;;;24.48;13.07;;;7.70;99.90;;;;;;4929129;29;20301;-70
2024/03/10 09:14:24;;;;;;;21.35;11.05;;;7.80;99.90;;;;;;4928904;29;20234;-71
2024/03/10 09:16:50;;;;;;;27.55;15.43;;;7.90;99.90;;;;;;4934842;29;20240;-71
2024/03/10 09:19:17;;;;;;;26.63;16.13;;;8.00;99.90;;;;;;4930376;29;20669;-73
2024/03/10 09:21:45;;;;;;;26.40;13.55;;;8.10;99.90;;;;;;4935657;29;20229;-72
2024/03/10 09:24:14;;;;;;;26.63;12.68;;;8.20;99.90;;;;;;4933699;29;20198;-71
2024/03/10 09:26:41;;;;;;;23.27;12.30;;;8.30;99.90;;;;;;4931979;29;20253;-70
2024/03/10 09:29:09;;;;;;;22.92;12.45;;;8.40;99.90;;;;;;4931677;29;20202;-72
2024/03/10 09:31:40;;;;;;;23.40;14.68;;;8.50;99.90;;;;;;4932065;29;20226;-72
2024/03/10 09:34:06;;;;;;;20.25;12.20;;;8.60;99.90;;;;;;4932899;29;20676;-71
2024/03/10 09:36:33;;;;;;;24.65;12.98;;;8.70;99.90;;;;;;4934119;29;20229;-71
2024/03/10 09:39:00;;;;;;;21.95;13.45;;;8.80;99.90;;;;;;4934674;29;20213;-72
2024/03/10 09:41:29;;;;;;;20.95;12.80;;;8.90;99.90;;;;;;4933346;29;20226;-71
2024/03/10 09:43:58;;;;;;;25.58;12.35;;;8.90;99.90;;;;;;4928270;29;20253;-72
2024/03/10 09:46:25;;;;;;;28.55;13.80;;;9.00;99.90;;;;;;4932999;29;20586;-71
2024/03/10 09:48:53;;;;;;;20.60;12.15;;;9.00;99.90;;;;;;4928900;29;20213;-71
2024/03/10 09:51:20;;;;;;;20.23;13.80;;;9.00;99.90;;;;;;4933982;29;20238;-73
2024/03/10 09:53:48;;;;;;;18.30;12.75;;;9.00;99.90;;;;;;4929475;29;20258;-74
2024/03/10 09:56:15;;;;;;;25.65;12.55;;;9.10;99.90;;;;;;4931101;29;20635;-72
2024/03/10 09:58:47;;;;;;;17.50;11.15;;;9.10;99.90;;;;;;4934436;29;20213;-71
2024/03/10 10:01:18;;;;;;;21.95;13.85;;;9.20;99.90;;;;;;4925835;29;20236;-73
2024/03/10 10:03:49;;;;;;;23.85;13.70;;;9.20;99.90;;;;;;4922766;29;20245;-71
2024/03/10 10:06:19;;;;;;;25.63;13.50;;;9.30;99.90;;;;;;4923676;29;20328;-72
2024/03/10 10:08:51;;;;;;;17.65;11.93;;;9.40;99.90;;;;;;4927583;29;20223;-73
2024/03/10 10:11:18;;;;;;;21.75;13.30;;;9.40;99.90;;;;;;4930125;29;20789;-73
2024/03/10 10:14:05;;;;;;;20.60;11.55;;;9.50;99.90;;;;;;4930409;29;20216;-74
2024/03/10 10:16:32;;;;;;;19.52;11.85;;;9.60;99.90;;;;;;4931514;29;20209;-71
2024/03/10 10:18:59;;;;;;;21.08;13.05;;;9.70;99.90;;;;;;4929719;29;20210;-70
2024/03/10 10:21:29;;;;;;;21.52;11.45;;;9.80;99.90;;;;;;4930790;29;20583;-71
2024/03/10 10:23:57;;;;;;;16.63;11.95;;;9.90;99.90;;;;;;4931766;29;20507;-70
2024/03/10 10:26:24;;;;;;;16.33;9.32;;;9.90;99.90;;;;;;4931419;29;20251;-70
2024/03/10 10:29:06;;;;;;;16.77;10.68;;;10.00;99.90;;;;;;4929895;29;20239;-70
2024/03/10 10:31:33;;;;;;;21.77;11.30;;;10.20;99.90;;;;;;4930288;29;20229;-71
2024/03/10 10:34:00;;;;;;;14.35;10.27;;;10.20;99.90;;;;;;4930354;29;20208;-71
2024/03/10 10:36:27;;;;;;;18.33;11.38;;;10.30;99.90;;;;;;4933360;29;20223;-72
2024/03/10 10:38:55;;;;;;;22.15;11.50;;;10.40;99.90;;;;;;4931890;29;20298;-71
2024/03/10 10:41:22;;;;;;;26.40;14.18;;;10.50;99.90;;;;;;4932493;29;20233;-70
2024/03/10 10:43:48;;;;;;;18.67;11.18;;;10.40;99.90;;;;;;4935786;29;20240;-71
2024/03/10 10:46:15;;;;;;;20.63;12.48;;;10.40;99.90;;;;;;4932319;29;20686;-71
2024/03/10 10:48:45;;;;;;;14.05;9.43;;;10.40;99.90;;;;;;4933677;29;20223;-71
2024/03/10 10:51:14;;;;;;;17.90;11.70;;;10.40;99.90;;;;;;4930773;29;20329;-71
2024/03/10 10:53:43;;;;;;;15.32;11.95;;;10.40;99.90;;;;;;4932899;29;20831;-71
2024/03/10 10:56:12;;;;;;;18.98;10.85;;;10.40;99.90;;;;;;4933242;29;20292;-70
2024/03/10 10:58:40;;;;;;;22.23;12.57;;;10.50;99.90;;;;;;4933166;29;20260;-73
2024/03/10 11:01:09;;;;;;;17.83;11.65;;;10.50;99.90;;;;;;4929746;29;20605;-72
2024/03/10 11:03:37;;;;;;;19.30;10.75;;;10.50;99.90;;;;;;4932768;29;20209;-70
2024/03/10 11:06:27;;;;;;;14.90;9.27;;;10.70;99.90;;;;;;4930602;29;20275;-71
2024/03/10 11:08:55;;;;;;;11.55;7.03;;;10.70;99.90;;;;;;4928953;29;20220;-70
2024/03/10 11:11:51;;;;;;;19.90;13.50;;;10.70;99.90;;;;;;4932222;29;20233;-70
2024/03/10 11:14:21;;;;;;;18.55;12.13;;;10.70;99.90;;;;;;4911800;29;20311;-70
2024/03/10 11:16:48;;;;;;;22.60;12.77;;;10.70;99.90;;;;;;4928899;29;20217;-70
2024/03/10 11:19:21;;;;;;;15.70;8.63;;;10.80;99.90;;;;;;4932481;29;20220;-71
2024/03/10 11:21:49;;;;;;;22.83;12.63;;;10.90;99.90;;;;;;4932078;29;20796;-71
2024/03/10 11:24:18;;;;;;;22.90;11.03;;;11.00;99.90;;;;;;4930746;29;20213;-71
2024/03/10 11:26:46;;;;;;;17.10;11.50;;;11.00;99.90;;;;;;4931808;29;20481;-71
2024/03/10 11:29:28;;;;;;;23.20;12.10;;;11.10;99.90;;;;;;4930720;29;20489;-73
2024/03/10 11:31:59;;;;;;;23.73;11.85;;;11.00;99.90;;;;;;4929198;29;20490;-70
2024/03/10 11:34:28;;;;;;;12.07;9.40;;;11.00;99.90;;;;;;4931744;29;20208;-71
2024/03/10 11:36:57;;;;;;;14.15;9.80;;;11.00;99.90;;;;;;4931135;29;20668;-72
2024/03/10 11:39:24;;;;;;;20.17;11.60;;;11.00;99.90;;;;;;4930676;29;20210;-71
2024/03/10 11:41:50;;;;;;;21.17;12.47;;;11.00;99.90;;;;;;4931514;29;20500;-72
2024/03/10 11:44:18;;;;;;;19.08;11.95;;;11.00;99.90;;;;;;4931753;29;20468;-72
2024/03/10 11:46:47;;;;;;;16.45;11.82;;;11.00;99.90;;;;;;4931443;29;20217;-72
2024/03/10 11:49:14;;;;;;;12.07;8.37;;;11.10;99.90;;;;;;4932331;29;20673;-70
2024/03/10 11:51:43;;;;;;;15.37;7.97;;;11.20;99.90;;;;;;4934415;29;20503;-71
2024/03/10 11:54:13;;;;;;;20.60;11.30;;;11.20;99.90;;;;;;4933407;29;20485;-70
2024/03/10 11:56:42;;;;;;;19.10;11.20;;;11.20;99.90;;;;;;4934571;29;20557;-71
2024/03/10 11:59:11;;;;;;;15.83;8.53;;;11.20;99.90;;;;;;4937424;29;20531;-72
2024/03/10 12:01:40;;;;;;;19.07;11.30;;;11.20;99.90;;;;;;4939459;29;20535;-71
2024/03/10 12:04:09;;;;;;;15.60;10.63;;;11.30;99.90;;;;;;4933862;29;20473;-69
2024/03/10 12:06:37;;;;;;;23.13;10.40;;;11.40;99.90;;;;;;4930777;29;20461;-69
2024/03/10 12:09:12;;;;;;;18.67;11.10;;;11.50;99.90;;;;;;4931387;29;20462;-68
2024/03/10 12:11:40;;;;;;;17.60;10.90;;;11.60;99.90;;;;;;4926182;29;20477;-70
2024/03/10 12:14:08;;;;;;;21.87;12.80;;;11.70;99.90;;;;;;4932904;29;20984;-70
2024/03/10 12:16:36;;;;;;;21.00;11.27;;;11.80;99.90;;;;;;4929628;29;20486;-69
2024/03/10 12:19:04;;;;;;;20.30;12.57;;;11.90;99.90;;;;;;4927287;29;20536;-71
2024/03/10 12:21:32;;;;;;;18.93;12.00;;;12.00;99.90;;;;;;4930655;29;20857;-70
2024/03/10 12:24:00;;;;;;;15.00;9.87;;;12.00;99.90;;;;;;4928309;29;20465;-70
2024/03/10 12:26:28;;;;;;;15.60;10.53;;;12.10;99.90;;;;;;4927927;29;20458;-70
2024/03/10 12:28:56;;;;;;;21.33;12.20;;;12.10;99.90;;;;;;4931587;29;20466;-69
2024/03/10 12:31:26;;;;;;;13.80;9.37;;;12.10;99.90;;;;;;4928501;29;20580;-69
2024/03/10 12:33:52;;;;;;;18.27;9.10;;;12.00;99.90;;;;;;4931604;29;20825;-69
2024/03/10 12:36:20;;;;;;;20.10;11.47;;;12.00;99.90;;;;;;4931209;29;20490;-70
2024/03/10 12:38:48;;;;;;;15.27;9.70;;;12.00;99.90;;;;;;4922998;29;20533;-70
2024/03/10 12:41:17;;;;;;;20.70;10.80;;;12.00;99.90;;;;;;4931124;29;20867;-70
2024/03/10 12:43:45;;;;;;;17.57;11.37;;;12.00;99.90;;;;;;4932360;29;20477;-72
2024/03/10 12:46:17;;;;;;;16.07;10.87;;;12.00;99.90;;;;;;4931176;29;20465;-70
2024/03/10 12:48:44;;;;;;;16.77;10.63;;;12.00;99.90;;;;;;4933768;29;20790;-70
2024/03/10 12:51:11;;;;;;;17.90;9.80;;;12.00;99.90;;;;;;4933224;29;20481;-70
2024/03/10 12:53:39;;;;;;;22.73;10.60;;;11.90;99.90;;;;;;4934698;29;20470;-71
2024/03/10 12:56:09;;;;;;;20.20;12.03;;;11.90;99.90;;;;;;4934454;29;20545;-71
2024/03/10 12:58:36;;;;;;;17.03;11.03;;;11.90;99.90;;;;;;4935192;29;20469;-71
2024/03/10 13:01:03;;;;;;;20.60;11.50;;;11.90;99.90;;;;;;4933307;29;20563;-70
2024/03/10 13:03:31;;;;;;;17.87;12.50;;;11.90;99.90;;;;;;4934522;29;20525;-70
2024/03/10 13:05:57;;;;;;;12.80;10.27;;;11.90;99.90;;;;;;4933513;29;20549;-71
2024/03/10 13:08:24;;;;;;;15.90;10.70;;;12.00;99.90;;;;;;4930075;29;20841;-70
2024/03/10 13:10:51;;;;;;;15.70;10.00;;;12.10;99.90;;;;;;4934362;29;20487;-72
2024/03/10 13:13:20;;;;;;;10.47;7.10;;;12.10;99.90;;;;;;4934345;29;20461;-72
2024/03/10 13:15:46;;;;;;;15.90;9.23;;;12.20;99.90;;;;;;4929924;29;20493;-70
2024/03/10 13:18:15;;;;;;;12.60;8.80;;;12.20;99.90;;;;;;4931432;29;20848;-70
2024/03/10 13:20:43;;;;;;;11.97;8.40;;;12.30;99.90;;;;;;4934760;29;20492;-73
2024/03/10 13:23:10;;;;;;;19.00;11.10;;;12.30;99.90;;;;;;4932808;29;20486;-70
2024/03/10 13:25:38;;;;;;;12.57;8.67;;;12.30;99.90;;;;;;4933282;29;20466;-70
2024/03/10 13:28:05;;;;;;;7.90;6.90;;;12.40;99.90;;;;;;4932652;29;20556;-70
2024/03/10 13:30:33;;;;;;;13.17;7.67;;;12.40;99.90;;;;;;4933134;29;20470;-73
2024/03/10 13:33:00;;;;;;;9.20;6.50;;;12.50;99.90;;;;;;4932639;29;20472;-72
2024/03/10 13:35:27;;;;;;;12.70;8.00;;;12.50;99.90;;;;;;4934409;29;20976;-70
2024/03/10 13:37:53;;;;;;;12.33;8.67;;;12.60;99.90;;;;;;4932567;29;20483;-70
2024/03/10 13:40:20;;;;;;;12.30;8.77;;;12.70;99.90;;;;;;4931869;29;20469;-71
2024/03/10 13:42:47;;;;;;;13.63;8.90;;;12.70;99.90;;;;;;4932643;29;20465;-71
2024/03/10 13:45:14;;;;;;;12.90;9.10;;;12.70;99.90;;;;;;4929534;29;20500;-72
2024/03/10 13:47:42;;;;;;;18.70;11.13;;;12.70;99.90;;;;;;4934185;29;20490;-71
2024/03/10 13:50:10;;;;;;;14.30;7.93;;;12.70;99.90;;;;;;4933166;29;20477;-71
2024/03/10 13:52:38;;;;;;;13.57;7.60;;;12.60;99.90;;;;;;4934614;29;20505;-71
2024/03/10 13:55:06;;;;;;;12.10;10.00;;;12.50;99.90;;;;;;4937279;28;20469;-72
2024/03/10 13:57:33;;;;;;;12.13;8.83;;;12.50;99.90;;;;;;4931739;29;20469;-72
2024/03/10 14:00:03;;;;;;;13.27;8.60;;;12.40;99.90;;;;;;4931639;29;20846;-73
2024/03/10 14:02:30;;;;;;;16.50;9.10;;;12.40;99.90;;;;;;4932688;29;20525;-71
2024/03/10 14:04:58;;;;;;;12.53;9.07;;;12.40;99.90;;;;;;4932504;29;20497;-73
2024/03/10 14:07:25;;;;;;;13.37;10.10;;;12.40;99.90;;;;;;4932249;29;20477;-71
2024/03/10 14:09:52;;;;;;;16.33;10.33;;;12.40;99.90;;;;;;4928439;29;20493;-72
2024/03/10 14:12:19;;;;;;;13.13;7.90;;;12.40;99.90;;;;;;4932789;29;20496;-72
2024/03/10 14:14:45;;;;;;;12.00;8.33;;;12.50;99.90;;;;;;4933524;29;20470;-72
2024/03/10 14:17:12;;;;;;;11.90;7.73;;;12.40;99.90;;;;;;4932769;29;20512;-72
2024/03/10 14:19:39;;;;;;;14.53;8.93;;;12.40;99.90;;;;;;4929466;29;20461;-72
2024/03/10 14:22:08;;;;;;;12.47;8.97;;;12.40;99.90;;;;;;4933081;29;20481;-70
2024/03/10 14:24:34;;;;;;;11.93;7.67;;;12.40;99.90;;;;;;4932264;29;20600;-70
2024/03/10 14:27:01;;;;;;;11.43;8.30;;;12.50;99.90;;;;;;4931527;29;20468;-71
2024/03/10 14:29:29;;;;;;;13.40;9.03;;;12.50;99.90;;;;;;4933133;29;20498;-71
2024/03/10 14:31:56;;;;;;;16.73;9.60;;;12.50;99.90;;;;;;4929875;29;20577;-70
2024/03/10 14:34:23;;;;;;;13.20;9.63;;;12.40;99.90;;;;;;4931137;29;20960;-70
2024/03/10 14:36:50;;;;;;;12.20;7.13;;;12.50;99.90;;;;;;4932989;29;20841;-72
2024/03/10 14:39:18;;;;;;;9.80;8.07;;;12.50;99.90;;;;;;4931651;29;20645;-72
2024/03/10 14:41:46;;;;;;;11.60;8.40;;;12.40;99.90;;;;;;4931616;29;20493;-73
2024/03/10 14:44:12;;;;;;;10.63;9.47;;;12.40;99.90;;;;;;4932472;29;20466;-72
2024/03/10 14:46:39;;;;;;;12.30;8.50;;;12.40;99.90;;;;;;4932175;29;20500;-72
2024/03/10 14:49:08;;;;;;;11.63;7.90;;;12.40;99.90;;;;;;4930322;29;20983;-71
2024/03/10 14:51:35;;;;;;;17.13;9.00;;;12.40;99.90;;;;;;4932794;29;20497;-71
2024/03/10 14:54:03;;;;;;;12.93;9.90;;;12.30;99.90;;;;;;4932765;29;20473;-70
2024/03/10 14:56:31;;;;;;;16.50;8.33;;;12.30;99.90;;;;;;4932632;29;20512;-70
2024/03/10 14:58:58;;;;;;;12.67;10.13;;;12.30;99.90;;;;;;4931218;29;20980;-71
2024/03/10 15:01:26;;;;;;;15.30;10.20;;;12.30;99.90;;;;;;4934924;29;20496;-70
2024/03/10 15:03:55;;;;;;;14.13;8.53;;;12.40;99.90;;;;;;4933644;29;20462;-75
2024/03/10 15:06:21;;;;;;;17.17;8.00;;;12.40;99.90;;;;;;4930810;29;20568;-72
2024/03/10 15:08:48;;;;;;;13.27;7.63;;;12.40;99.90;;;;;;4931736;29;20465;-70
2024/03/10 15:11:15;;;;;;;11.67;8.57;;;12.40;99.90;;;;;;4929867;29;20482;-70
2024/03/10 15:13:45;;;;;;;19.27;9.67;;;12.40;99.90;;;;;;4930312;29;20533;-72
2024/03/10 15:16:12;;;;;;;21.10;10.43;;;12.30;99.90;;;;;;4932092;29;20500;-70
2024/03/10 15:18:40;;;;;;;19.27;11.20;;;12.30;99.90;;;;;;4932587;29;20489;-69
2024/03/10 15:21:07;;;;;;;15.70;10.40;;;12.30;99.90;;;;;;4930741;29;20498;-69
2024/03/10 15:23:33;;;;;;;12.50;8.63;;;12.20;99.90;;;;;;4932026;29;20841;-69
2024/03/10 15:26:04;;;;;;;14.27;9.40;;;12.20;99.90;;;;;;4930350;29;20488;-70
2024/03/10 15:28:31;;;;;;;15.30;9.17;;;12.20;99.90;;;;;;4927148;29;20556;-72
2024/03/10 15:30:59;;;;;;;8.77;7.77;;;12.20;99.90;;;;;;4926125;29;21082;-72
2024/03/10 15:33:26;;;;;;;14.50;10.60;;;12.20;99.90;;;;;;4930618;29;20470;-71
2024/03/10 15:35:54;;;;;;;10.27;8.00;;;12.10;99.90;;;;;;4931482;29;20489;-70
2024/03/10 15:38:22;;;;;;;20.30;12.50;;;12.10;99.90;;;;;;4928699;29;20478;-72
2024/03/10 15:40:49;;;;;;;15.63;9.90;;;12.00;99.90;;;;;;4924427;29;20505;-71
2024/03/10 15:43:17;;;;;;;18.27;11.60;;;12.00;99.90;;;;;;4928554;29;20477;-71
2024/03/10 15:45:46;;;;;;;16.27;9.23;;;12.00;99.90;;;;;;4931534;29;20476;-69
2024/03/10 15:48:14;;;;;;;19.27;11.33;;;11.90;99.90;;;;;;4933121;29;20499;-70
2024/03/10 15:50:42;;;;;;;15.67;11.13;;;11.90;99.90;;;;;;4931303;29;21042;-70
2024/03/10 15:53:09;;;;;;;17.17;11.03;;;11.90;99.90;;;;;;4929256;29;20473;-69
2024/03/10 15:55:36;;;;;;;18.93;10.70;;;11.90;99.90;;;;;;4930723;29;20471;-70
2024/03/10 15:58:03;;;;;;;17.13;9.83;;;11.90;99.90;;;;;;4931072;29;20469;-69
2024/03/10 16:00:30;;;;;;;14.23;10.17;;;11.90;99.90;;;;;;4928235;29;20581;-70
2024/03/10 16:03:01;;;;;;;15.30;10.27;;;11.90;99.90;;;;;;4925603;29;20477;-74
2024/03/10 16:05:39;;;;;;;15.40;10.60;;;11.90;99.90;;;;;;4918639;29;21028;-71
2024/03/10 16:08:08;;;;;;;17.10;11.20;;;11.80;99.90;;;;;;4920705;29;20481;-72
2024/03/10 16:10:37;;;;;;;18.63;10.97;;;11.80;99.90;;;;;;4926653;29;20600;-72
2024/03/10 16:13:06;;;;;;;17.47;11.17;;;11.80;99.90;;;;;;4921219;29;21229;-72
2024/03/10 16:15:34;;;;;;;17.57;11.03;;;11.70;99.90;;;;;;4925491;29;20796;-71
2024/03/10 16:18:03;;;;;;;13.53;8.77;;;11.70;99.90;;;;;;4926026;29;20493;-71
2024/03/10 16:20:32;;;;;;;17.97;11.83;;;11.60;99.90;;;;;;4926638;29;20544;-71
2024/03/10 16:22:59;;;;;;;20.17;12.50;;;11.50;99.90;;;;;;4925763;29;20548;-72
2024/03/10 16:25:26;;;;;;;18.33;11.70;;;11.50;99.90;;;;;;4927691;29;20472;-72
2024/03/10 16:27:53;;;;;;;20.07;10.60;;;11.50;99.90;;;;;;4925108;29;20878;-72
2024/03/10 16:30:20;;;;;;;20.83;12.03;;;11.40;99.90;;;;;;4924694;29;20477;-72
2024/03/10 16:32:49;;;;;;;15.33;10.10;;;11.40;99.90;;;;;;4928663;29;20479;-71
2024/03/10 16:35:15;;;;;;;17.43;10.43;;;11.40;99.90;;;;;;4923998;29;20822;-72
2024/03/10 16:37:44;;;;;;;19.03;12.90;;;11.30;99.90;;;;;;4926592;29;20498;-71
2024/03/10 16:40:13;;;;;;;17.15;11.68;;;11.30;99.90;;;;;;4927575;29;20492;-71
2024/03/10 16:42:42;;;;;;;16.77;10.47;;;11.30;99.90;;;;;;4924412;29;20241;-71
2024/03/10 16:45:12;;;;;;;19.47;10.90;;;11.30;99.90;;;;;;4926093;29;20886;-71
2024/03/10 16:47:44;;;;;;;16.50;10.03;;;11.20;99.90;;;;;;4928657;29;20512;-71
2024/03/10 16:50:11;;;;;;;14.38;8.77;;;11.20;99.90;;;;;;4924761;29;20504;-72
2024/03/10 16:52:38;;;;;;;20.37;11.03;;;11.20;99.90;;;;;;4929048;29;20578;-72
2024/03/10 16:55:07;;;;;;;15.90;10.10;;;11.20;99.90;;;;;;4925798;29;20495;-71
2024/03/10 16:57:34;;;;;;;20.37;10.47;;;11.20;99.90;;;;;;4924334;29;20545;-72
2024/03/10 17:00:01;;;;;;;18.13;10.48;;;11.10;99.90;;;;;;4933893;29;20492;-72
2024/03/10 17:02:30;;;;;;;16.03;10.97;;;11.10;99.90;;;;;;4931941;29;20309;-70
2024/03/10 17:04:57;;;;;;;16.23;10.23;;;11.10;99.90;;;;;;4930860;29;20470;-70
2024/03/10 17:07:24;;;;;;;19.50;11.50;;;11.10;99.90;;;;;;4928455;29;20469;-71
2024/03/10 17:09:51;;;;;;;18.65;11.05;;;11.10;99.90;;;;;;4927876;29;20553;-70
2024/03/10 17:12:19;;;;;;;17.60;10.80;;;11.00;99.90;;;;;;4922917;29;20230;-71
2024/03/10 17:14:48;;;;;;;17.03;11.40;;;11.00;99.90;;;;;;4928275;29;20495;-68
2024/03/10 17:17:15;;;;;;;18.90;10.73;;;11.00;99.90;;;;;;4926668;29;20528;-69
2024/03/10 17:19:42;;;;;;;15.03;9.90;;;11.00;99.90;;;;;;4927005;29;20484;-68
2024/03/10 17:22:08;;;;;;;17.25;11.73;;;11.00;99.90;;;;;;4924741;29;20497;-69
2024/03/10 17:24:35;;;;;;;19.88;10.10;;;11.00;99.90;;;;;;4926778;29;20328;-68
2024/03/10 17:27:02;;;;;;;16.50;10.57;;;10.90;99.90;;;;;;4926192;29;20209;-67
2024/03/10 17:29:30;;;;;;;17.45;10.70;;;10.90;99.90;;;;;;4925076;29;20561;-69
2024/03/10 17:31:57;;;;;;;20.90;12.10;;;10.90;99.90;;;;;;4926763;29;20373;-70
2024/03/10 17:34:24;;;;;;;22.63;12.50;;;10.90;99.90;;;;;;4926864;29;20209;-69
2024/03/10 17:36:51;;;;;;;17.35;10.02;;;10.80;99.90;;;;;;4925708;29;20513;-69
2024/03/10 17:39:19;;;;;;;21.73;13.33;;;10.80;99.90;;;;;;4924290;29;20210;-69
2024/03/10 17:41:46;;;;;;;16.90;12.40;;;10.80;99.90;;;;;;4926013;29;20486;-67
2024/03/10 17:44:13;;;;;;;21.70;12.30;;;10.80;99.90;;;;;;4925306;29;20953;-69